Time;durP1;ratioP1;P1;durP2;ratioP2;P2;SDS_P1;SDS_P2;PMS_P1;PMS_P2;Temp;Humidity;BMP_temperature;BMP_pressure;BME280_temperature;BME280_humidity;BME280_pressure;Samples;Min_cycle;Max_cycle;Signal;HPM_P1;HPM_P2
2022/04/06 05:39:36;;;;;;;6.78;2.33;;;;;;;;;;5631958;23;20043;-82
2022/04/06 05:42:04;;;;;;;7.65;1.90;;;;;;;;;;4966460;28;20081;-82
2022/04/06 05:44:30;;;;;;;10.43;1.80;;;;;;;;;;4971569;28;20163;-82
2022/04/06 05:46:57;;;;;;;6.60;1.58;;;;;;;;;;4967946;28;20138;-82
2022/04/06 05:49:23;;;;;;;6.97;1.27;;;;;;;;;;4967682;28;21754;-82
2022/04/06 05:51:50;;;;;;;8.02;1.35;;;;;;;;;;4966403;28;20078;-82
2022/04/06 05:54:16;;;;;;;3.25;0.98;;;;;;;;;;4969696;28;20128;-81
2022/04/06 05:56:43;;;;;;;7.95;1.00;;;;;;;;;;4969060;28;20085;-81
2022/04/06 05:59:09;;;;;;;6.97;1.20;;;;;;;;;;4967647;28;20078;-81
2022/04/06 06:01:36;;;;;;;6.00;1.42;;;;;;;;;;4967452;28;20134;-82
2022/04/06 06:04:02;;;;;;;8.95;1.23;;;;;;;;;;4967362;28;20265;-81
2022/04/06 06:06:29;;;;;;;9.90;1.30;;;;;;;;;;4968108;28;20051;-83
2022/04/06 06:08:56;;;;;;;8.98;1.02;;;;;;;;;;4967636;28;20396;-81
2022/04/06 06:11:22;;;;;;;12.55;1.38;;;;;;;;;;4967992;28;20094;-82
2022/04/06 06:13:49;;;;;;;5.90;0.98;;;;;;;;;;4967851;28;20133;-82
2022/04/06 06:16:15;;;;;;;4.78;1.23;;;;;;;;;;4967798;28;20542;-83
2022/04/06 06:18:42;;;;;;;9.63;1.10;;;;;;;;;;4968686;28;20114;-82
2022/04/06 06:21:09;;;;;;;6.57;1.15;;;;;;;;;;4969968;28;20074;-81
2022/04/06 06:23:35;;;;;;;6.93;0.93;;;;;;;;;;4969260;28;20075;-82
2022/04/06 06:26:02;;;;;;;6.80;1.30;;;;;;;;;;4968318;28;20085;-81
2022/04/06 06:28:29;;;;;;;9.85;1.42;;;;;;;;;;4955251;28;20059;-82
2022/04/06 06:30:55;;;;;;;11.55;1.30;;;;;;;;;;4971752;28;20558;-82
2022/04/06 06:33:23;;;;;;;6.90;1.20;;;;;;;;;;4972404;28;20055;-81
2022/04/06 06:35:51;;;;;;;6.95;1.30;;;;;;;;;;4974417;28;20055;-83
2022/04/06 06:38:18;;;;;;;8.32;1.77;;;;;;;;;;4970603;28;20129;-83
2022/04/06 06:40:46;;;;;;;8.77;1.38;;;;;;;;;;4971533;28;20078;-81
2022/04/06 06:43:13;;;;;;;11.65;1.60;;;;;;;;;;4974243;28;20142;-81
2022/04/06 06:45:39;;;;;;;7.53;1.38;;;;;;;;;;4971709;28;20051;-82
2022/04/06 06:48:06;;;;;;;13.80;2.00;;;;;;;;;;4974131;28;20404;-82
2022/04/06 06:50:33;;;;;;;8.15;1.40;;;;;;;;;;4972290;28;20070;-82
2022/04/06 06:52:59;;;;;;;10.20;1.48;;;;;;;;;;4956653;28;20077;-82
2022/04/06 06:55:27;;;;;;;10.95;1.40;;;;;;;;;;4971151;28;20105;-82
2022/04/06 06:57:54;;;;;;;11.65;2.00;;;;;;;;;;4971419;28;20475;-82
2022/04/06 07:00:20;;;;;;;14.95;5.40;;;;;;;;;;4955067;28;20148;-82
2022/04/06 07:02:47;;;;;;;10.60;2.50;;;;;;;;;;4973682;28;20066;-82
2022/04/06 07:05:14;;;;;;;15.77;1.92;;;;;;;;;;4971163;28;20043;-83
2022/04/06 07:07:47;;;;;;;11.35;1.60;;;;;;;;;;4971686;28;20510;-82
2022/04/06 07:10:14;;;;;;;13.25;1.63;;;;;;;;;;4971451;28;20039;-81
2022/04/06 07:12:41;;;;;;;12.18;3.53;;;;;;;;;;4973474;28;20086;-82
2022/04/06 07:15:08;;;;;;;10.70;1.63;;;;;;;;;;4973324;28;20051;-81
2022/04/06 07:17:35;;;;;;;9.70;1.90;;;;;;;;;;4975106;28;20130;-81
2022/04/06 07:20:02;;;;;;;9.63;1.73;;;;;;;;;;4970754;28;20159;-82
2022/04/06 07:22:28;;;;;;;8.23;1.60;;;;;;;;;;4971618;28;20101;-82
2022/04/06 07:24:55;;;;;;;10.63;1.85;;;;;;;;;;4970986;28;20086;-81
2022/04/06 07:27:21;;;;;;;12.45;1.83;;;;;;;;;;4971156;28;20074;-82
2022/04/06 07:29:48;;;;;;;7.18;1.42;;;;;;;;;;4973022;28;20466;-82
2022/04/06 07:32:14;;;;;;;6.38;1.60;;;;;;;;;;4969431;28;20522;-82
2022/04/06 07:34:43;;;;;;;12.48;1.90;;;;;;;;;;4969601;28;20106;-82
2022/04/06 07:37:10;;;;;;;11.73;1.65;;;;;;;;;;4969204;28;20043;-82
2022/04/06 07:39:36;;;;;;;17.38;2.15;;;;;;;;;;4968746;28;20122;-83
2022/04/06 07:42:04;;;;;;;9.73;1.30;;;;;;;;;;4972143;28;20078;-82
2022/04/06 07:44:30;;;;;;;10.98;1.40;;;;;;;;;;4972208;28;20066;-82
2022/04/06 07:46:56;;;;;;;9.35;1.52;;;;;;;;;;4969082;28;20134;-83
2022/04/06 07:49:23;;;;;;;7.80;1.23;;;;;;;;;;4951708;28;20093;-83
2022/04/06 07:51:50;;;;;;;14.02;1.75;;;;;;;;;;4969331;28;20127;-84
2022/04/06 07:54:16;;;;;;;8.95;1.35;;;;;;;;;;4970916;28;20043;-84
2022/04/06 07:56:43;;;;;;;8.93;1.40;;;;;;;;;;4971017;28;20137;-83
2022/04/06 07:59:09;;;;;;;9.05;1.88;;;;;;;;;;4968155;28;20047;-84
2022/04/06 08:01:36;;;;;;;9.80;2.05;;;;;;;;;;4954525;28;20055;-83
2022/04/06 08:04:03;;;;;;;11.68;1.52;;;;;;;;;;4969198;28;20047;-84
2022/04/06 08:06:30;;;;;;;13.68;2.35;;;;;;;;;;4969169;28;20077;-83
2022/04/06 08:08:56;;;;;;;8.80;1.60;;;;;;;;;;4968115;28;20134;-83
2022/04/06 08:11:23;;;;;;;7.97;1.80;;;;;;;;;;4968188;28;20055;-83
2022/04/06 08:13:49;;;;;;;7.88;1.80;;;;;;;;;;4968926;28;20503;-85
2022/04/06 08:16:16;;;;;;;15.60;1.90;;;;;;;;;;4968717;28;20070;-83
2022/04/06 08:18:43;;;;;;;11.40;1.83;;;;;;;;;;4970359;28;20046;-83
2022/04/06 08:21:10;;;;;;;16.83;2.45;;;;;;;;;;4968899;28;20546;-82
2022/04/06 08:23:36;;;;;;;12.65;1.98;;;;;;;;;;4970429;28;20097;-83
2022/04/06 08:26:03;;;;;;;7.75;1.58;;;;;;;;;;4968935;28;20085;-85
2022/04/06 08:28:30;;;;;;;7.38;2.08;;;;;;;;;;4969191;28;20093;-84
2022/04/06 08:30:57;;;;;;;14.50;2.40;;;;;;;;;;4951356;28;20467;-85
2022/04/06 08:33:24;;;;;;;13.15;1.95;;;;;;;;;;4968614;28;20055;-85
2022/04/06 08:35:53;;;;;;;14.48;2.33;;;;;;;;;;4971345;28;20057;-84
2022/04/06 08:38:20;;;;;;;12.30;2.03;;;;;;;;;;4967916;28;20059;-83
2022/04/06 08:40:48;;;;;;;15.45;2.30;;;;;;;;;;4953108;28;20602;-85
2022/04/06 08:43:16;;;;;;;15.48;2.58;;;;;;;;;;4955378;28;20472;-84
2022/04/06 08:45:43;;;;;;;8.80;1.80;;;;;;;;;;4970477;28;20130;-85
2022/04/06 08:48:10;;;;;;;13.90;2.03;;;;;;;;;;4969775;28;20070;-83
2022/04/06 08:50:38;;;;;;;9.82;1.80;;;;;;;;;;4968580;28;20739;-83
2022/04/06 08:53:07;;;;;;;11.23;1.57;;;;;;;;;;4966881;28;20047;-81
2022/04/06 08:55:34;;;;;;;15.95;2.90;;;;;;;;;;4968604;28;20126;-85
2022/04/06 08:58:01;;;;;;;13.55;2.03;;;;;;;;;;4968384;28;20050;-86
2022/04/06 09:00:28;;;;;;;15.50;1.70;;;;;;;;;;4952915;28;20074;-84
2022/04/06 09:02:54;;;;;;;10.80;1.60;;;;;;;;;;4970899;28;20077;-84
2022/04/06 09:05:25;;;;;;;11.93;1.80;;;;;;;;;;4967292;28;20054;-84
2022/04/06 09:07:52;;;;;;;13.20;2.13;;;;;;;;;;4968186;28;20046;-84
2022/04/06 09:10:36;;;;;;;16.65;3.03;;;;;;;;;;4969259;28;20038;-83
2022/04/06 09:13:23;;;;;;;12.00;2.13;;;;;;;;;;4951887;28;20089;-83
2022/04/06 09:15:58;;;;;;;13.13;2.45;;;;;;;;;;4957170;28;20055;-83
2022/04/06 09:18:35;;;;;;;17.08;2.97;;;;;;;;;;4952385;28;20049;-82
2022/04/06 09:21:02;;;;;;;9.70;2.58;;;;;;;;;;4964920;28;20051;-82
2022/04/06 09:23:31;;;;;;;18.02;3.45;;;;;;;;;;4967657;28;20094;-83
2022/04/06 09:26:03;;;;;;;15.57;2.88;;;;;;;;;;4950642;28;20101;-84
2022/04/06 09:28:41;;;;;;;10.32;2.05;;;;;;;;;;4960347;28;20078;-84
2022/04/06 09:31:13;;;;;;;16.00;2.00;;;;;;;;;;4966381;28;20074;-83
2022/04/06 09:33:41;;;;;;;16.60;1.98;;;;;;;;;;4947734;28;20054;-83
2022/04/06 09:36:21;;;;;;;14.57;2.25;;;;;;;;;;4948660;28;20055;-83
2022/04/06 09:38:49;;;;;;;17.52;2.30;;;;;;;;;;4949981;28;20507;-84
2022/04/06 09:41:18;;;;;;;14.00;1.90;;;;;;;;;;4966917;28;20526;-82
2022/04/06 09:43:50;;;;;;;11.95;1.90;;;;;;;;;;4965190;28;20054;-82
2022/04/06 09:49:18;;;;;;;14.85;2.67;;;;;;;;;;4964275;28;20077;-82
2022/04/06 09:51:51;;;;;;;13.48;2.15;;;;;;;;;;4968064;28;20054;-81
2022/04/06 09:54:19;;;;;;;15.82;2.85;;;;;;;;;;4967721;28;20050;-82
2022/04/06 09:56:45;;;;;;;14.80;2.75;;;;;;;;;;4969599;28;20134;-82
2022/04/06 09:59:14;;;;;;;15.90;3.53;;;;;;;;;;4965786;28;20129;-83
2022/04/06 10:01:48;;;;;;;26.30;9.55;;;;;;;;;;4967692;28;20141;-82
2022/04/06 10:04:24;;;;;;;39.25;14.60;;;;;;;;;;4970021;28;20080;-81
2022/04/06 10:06:51;;;;;;;41.33;20.85;;;;;;;;;;4971549;28;20125;-81
2022/04/06 10:09:19;;;;;;;19.60;8.05;;;;;;;;;;4968650;28;20062;-83
2022/04/06 10:11:47;;;;;;;16.17;5.82;;;;;;;;;;4951959;28;20111;-82
2022/04/06 10:14:14;;;;;;;20.48;8.73;;;;;;;;;;4951614;28;20082;-82
2022/04/06 10:16:41;;;;;;;16.10;3.60;;;;;;;;;;4954414;28;20154;-83
2022/04/06 10:19:13;;;;;;;17.02;2.92;;;;;;;;;;4970627;28;20460;-84
2022/04/06 10:21:53;;;;;;;20.02;6.10;;;;;;;;;;4965781;28;20051;-82
2022/04/06 10:24:40;;;;;;;12.48;3.20;;;;;;;;;;4952952;28;20519;-83
2022/04/06 10:27:23;;;;;;;21.30;3.22;;;;;;;;;;4954090;28;20951;-81
2022/04/06 10:30:10;;;;;;;17.35;3.05;;;;;;;;;;4953719;28;20520;-85
2022/04/06 10:32:38;;;;;;;18.43;2.90;;;;;;;;;;4970169;28;20642;-83
2022/04/06 10:35:24;;;;;;;23.02;3.05;;;;;;;;;;4970041;28;20326;-84
2022/04/06 10:38:11;;;;;;;29.27;3.47;;;;;;;;;;4971452;28;20145;-83
2022/04/06 10:40:44;;;;;;;22.40;3.22;;;;;;;;;;4970512;28;20063;-84
2022/04/06 10:43:40;;;;;;;23.48;3.97;;;;;;;;;;4954271;28;20113;-83
2022/04/06 10:46:10;;;;;;;20.33;3.90;;;;;;;;;;4970221;28;20050;-85
2022/04/06 10:48:57;;;;;;;19.20;3.38;;;;;;;;;;4953913;28;20097;-84
2022/04/06 10:51:30;;;;;;;22.70;3.58;;;;;;;;;;4953400;28;20232;-84
2022/04/06 10:53:57;;;;;;;22.30;3.45;;;;;;;;;;4951159;28;20054;-85
2022/04/06 10:56:23;;;;;;;21.65;3.35;;;;;;;;;;4969572;28;20142;-83
2022/04/06 10:58:56;;;;;;;18.10;3.35;;;;;;;;;;4970508;28;20070;-84
2022/04/06 11:01:29;;;;;;;23.50;4.40;;;;;;;;;;4951532;28;20125;-83
2022/04/06 11:04:01;;;;;;;23.42;3.40;;;;;;;;;;4970813;28;20118;-85
2022/04/06 11:06:44;;;;;;;23.35;4.43;;;;;;;;;;4970638;28;20058;-79
2022/04/06 11:12:18;;;;;;;18.67;3.85;;;;;;;;;;4968135;28;20054;-79
2022/04/06 11:15:09;;;;;;;18.10;3.78;;;;;;;;;;4970734;28;20129;-79
2022/04/06 11:17:42;;;;;;;26.45;4.95;;;;;;;;;;4969851;28;20085;-79
2022/04/06 11:20:36;;;;;;;21.77;3.60;;;;;;;;;;4970047;28;20117;-79
2022/04/06 11:23:02;;;;;;;23.55;3.45;;;;;;;;;;4966543;28;20058;-80
2022/04/06 11:25:31;;;;;;;23.30;4.45;;;;;;;;;;4970394;28;20089;-80
2022/04/06 11:28:08;;;;;;;26.83;4.07;;;;;;;;;;4969912;28;20053;-79
2022/04/06 11:30:35;;;;;;;29.95;4.68;;;;;;;;;;4964532;28;20051;-79
2022/04/06 11:33:04;;;;;;;29.50;4.17;;;;;;;;;;4967088;28;20086;-79
2022/04/06 11:35:36;;;;;;;23.67;4.43;;;;;;;;;;4970573;28;20092;-81
2022/04/06 11:38:04;;;;;;;32.97;14.23;;;;;;;;;;4969618;28;20082;-82
2022/04/06 11:40:31;;;;;;;28.08;4.38;;;;;;;;;;4970465;28;20051;-81
2022/04/06 11:43:04;;;;;;;28.98;5.28;;;;;;;;;;4969065;28;20063;-82
2022/04/06 11:45:39;;;;;;;25.55;4.47;;;;;;;;;;4956972;28;20053;-81
2022/04/06 11:48:08;;;;;;;27.45;4.40;;;;;;;;;;4963912;28;20420;-80
2022/04/06 11:50:35;;;;;;;;;;;;;;;;;;4964866;28;20086;-81
2022/04/06 11:53:08;;;;;;;22.95;4.38;;;;;;;;;;4952954;28;19927;-80
2022/04/06 11:55:49;;;;;;;24.65;4.70;;;;;;;;;;4968896;28;20074;-80
2022/04/06 11:58:38;;;;;;;28.90;4.25;;;;;;;;;;4968868;28;20058;-80
2022/04/06 12:01:15;;;;;;;28.67;4.55;;;;;;;;;;4964325;28;20414;-79
2022/04/06 12:03:44;;;;;;;20.42;3.75;;;;;;;;;;4969357;28;20066;-80
2022/04/06 12:06:14;;;;;;;19.27;4.28;;;;;;;;;;4968968;28;20455;-80
2022/04/06 12:08:46;;;;;;;28.38;3.50;;;;;;;;;;4969574;28;20106;-79
2022/04/06 12:11:14;;;;;;;23.52;3.95;;;;;;;;;;4950694;28;20463;-81
2022/04/06 12:13:41;;;;;;;24.15;4.60;;;;;;;;;;4963376;28;20098;-80
2022/04/06 12:16:09;;;;;;;23.23;4.45;;;;;;;;;;4968738;28;20138;-82
2022/04/06 12:18:39;;;;;;;22.77;4.15;;;;;;;;;;4969200;28;20542;-82
2022/04/06 12:21:20;;;;;;;27.65;4.57;;;;;;;;;;4967790;28;20481;-81
2022/04/06 12:23:48;;;;;;;27.25;4.78;;;;;;;;;;4967994;28;20117;-79
2022/04/06 12:26:15;;;;;;;23.95;5.28;;;;;;;;;;4967250;28;20150;-81
2022/04/06 12:28:44;;;;;;;30.15;4.47;;;;;;;;;;4967497;28;20496;-80
2022/04/06 12:31:11;;;;;;;29.35;4.60;;;;;;;;;;4966481;28;20574;-80
2022/04/06 12:33:46;;;;;;;16.98;4.97;;;;;;;;;;4967848;28;20049;-81
2022/04/06 12:36:30;;;;;;;22.42;4.55;;;;;;;;;;4968922;28;20451;-82
2022/04/06 12:39:15;;;;;;;22.15;4.22;;;;;;;;;;4965491;28;20047;-80
2022/04/06 12:42:07;;;;;;;23.45;5.35;;;;;;;;;;4969610;28;20058;-83
2022/04/06 12:44:35;;;;;;;21.73;4.28;;;;;;;;;;4969072;28;20475;-80
2022/04/06 12:47:17;;;;;;;23.63;4.25;;;;;;;;;;4968179;28;20089;-80
2022/04/06 12:49:43;;;;;;;28.98;5.32;;;;;;;;;;4968519;28;20054;-79
2022/04/06 12:52:10;;;;;;;30.48;5.15;;;;;;;;;;4968294;28;20042;-80
2022/04/06 12:54:38;;;;;;;26.73;4.50;;;;;;;;;;4968699;28;20114;-80
2022/04/06 12:57:28;;;;;;;34.13;5.00;;;;;;;;;;4968503;28;20428;-81
2022/04/06 12:59:58;;;;;;;33.53;5.90;;;;;;;;;;4961665;28;20523;-80
2022/04/06 13:02:26;;;;;;;37.72;5.28;;;;;;;;;;4968144;28;20050;-80
2022/04/06 13:04:58;;;;;;;30.83;5.33;;;;;;;;;;4968580;28;20121;-79
2022/04/06 13:07:26;;;;;;;27.30;4.85;;;;;;;;;;4968381;28;20074;-79
2022/04/06 13:10:05;;;;;;;30.33;4.13;;;;;;;;;;4968689;28;20046;-80
2022/04/06 13:12:33;;;;;;;27.98;5.50;;;;;;;;;;4968482;28;20082;-80
2022/04/06 13:15:00;;;;;;;29.52;4.72;;;;;;;;;;4969422;28;20545;-79
2022/04/06 13:17:28;;;;;;;22.52;3.25;;;;;;;;;;4968179;28;20043;-80
2022/04/06 13:19:55;;;;;;;20.40;3.77;;;;;;;;;;4969455;28;20046;-78
2022/04/06 13:22:22;;;;;;;24.20;3.05;;;;;;;;;;4968101;28;20358;-82
2022/04/06 13:24:48;;;;;;;17.42;3.53;;;;;;;;;;4968573;28;20074;-81
2022/04/06 13:27:15;;;;;;;18.10;2.58;;;;;;;;;;4967784;28;20149;-80
2022/04/06 13:29:44;;;;;;;16.58;2.03;;;;;;;;;;4948767;28;20082;-80
2022/04/06 13:32:11;;;;;;;11.23;1.77;;;;;;;;;;4967452;28;20157;-81
2022/04/06 13:34:38;;;;;;;15.80;2.38;;;;;;;;;;4966434;28;20161;-80
2022/04/06 13:37:05;;;;;;;20.85;3.25;;;;;;;;;;4965859;28;20042;-80
2022/04/06 13:39:32;;;;;;;12.52;2.40;;;;;;;;;;4966953;28;20043;-80
2022/04/06 13:42:05;;;;;;;18.77;2.45;;;;;;;;;;4962965;28;20471;-81
2022/04/06 13:44:33;;;;;;;12.77;1.85;;;;;;;;;;4967938;28;20537;-80
2022/04/06 13:47:01;;;;;;;11.47;2.17;;;;;;;;;;4965019;28;20070;-80
2022/04/06 13:49:28;;;;;;;9.67;1.90;;;;;;;;;;4964544;28;20730;-80
2022/04/06 13:51:55;;;;;;;11.23;1.90;;;;;;;;;;4955512;28;20047;-80
2022/04/06 13:54:24;;;;;;;11.68;1.85;;;;;;;;;;4953774;28;20550;-80
2022/04/06 13:56:52;;;;;;;13.05;1.80;;;;;;;;;;4954793;28;20050;-82
2022/04/06 13:59:20;;;;;;;13.45;2.10;;;;;;;;;;4955850;28;20054;-83
2022/04/06 14:01:48;;;;;;;12.32;1.75;;;;;;;;;;4956619;28;20170;-83
2022/04/06 14:04:15;;;;;;;12.90;2.20;;;;;;;;;;4964978;28;20055;-82
2022/04/06 14:06:42;;;;;;;21.52;3.53;;;;;;;;;;4964455;28;20070;-81
2022/04/06 14:09:10;;;;;;;19.10;2.45;;;;;;;;;;4966472;28;20129;-81
2022/04/06 14:11:38;;;;;;;16.05;2.83;;;;;;;;;;4967453;28;20161;-84
2022/04/06 14:14:07;;;;;;;16.35;3.08;;;;;;;;;;4951840;28;20149;-82
2022/04/06 14:16:34;;;;;;;16.77;2.50;;;;;;;;;;4966343;28;20086;-83
2022/04/06 14:19:04;;;;;;;18.13;3.03;;;;;;;;;;4952446;28;20055;-82
2022/04/06 14:21:33;;;;;;;22.00;3.00;;;;;;;;;;4965210;28;20054;-83
2022/04/06 14:24:02;;;;;;;19.42;2.95;;;;;;;;;;4947226;28;20054;-83
2022/04/06 14:26:28;;;;;;;27.17;4.50;;;;;;;;;;4967016;28;20133;-84
2022/04/06 14:28:56;;;;;;;27.33;3.65;;;;;;;;;;4947273;28;20295;-84
2022/04/06 14:31:22;;;;;;;21.40;3.10;;;;;;;;;;4966825;28;20495;-83
2022/04/06 14:33:50;;;;;;;28.33;3.95;;;;;;;;;;4966910;28;20113;-82
2022/04/06 14:36:18;;;;;;;16.15;2.78;;;;;;;;;;4967232;28;20051;-83
2022/04/06 14:38:46;;;;;;;21.63;3.33;;;;;;;;;;4965952;28;20058;-83
2022/04/06 14:41:14;;;;;;;24.52;3.10;;;;;;;;;;4966442;28;20039;-83
2022/04/06 14:43:43;;;;;;;24.00;3.10;;;;;;;;;;4950219;28;20051;-83
2022/04/06 14:46:09;;;;;;;26.73;3.30;;;;;;;;;;4966029;28;20046;-84
2022/04/06 14:48:38;;;;;;;13.82;2.95;;;;;;;;;;4966023;28;20053;-80
2022/04/06 14:51:05;;;;;;;16.92;2.50;;;;;;;;;;4952269;28;20050;-82
2022/04/06 14:53:33;;;;;;;18.90;2.67;;;;;;;;;;4970075;28;20047;-81
2022/04/06 14:56:00;;;;;;;19.00;3.10;;;;;;;;;;4969741;28;20051;-81
2022/04/06 14:58:27;;;;;;;16.58;3.13;;;;;;;;;;4969438;28;20050;-81
2022/04/06 15:00:53;;;;;;;16.15;2.42;;;;;;;;;;4969556;28;20074;-81
2022/04/06 15:03:20;;;;;;;18.23;2.97;;;;;;;;;;4968762;28;20050;-80
2022/04/06 15:05:47;;;;;;;16.38;2.95;;;;;;;;;;4971100;28;20153;-82
2022/04/06 15:08:14;;;;;;;15.85;2.65;;;;;;;;;;4967880;28;20050;-82
2022/04/06 15:10:42;;;;;;;23.02;2.88;;;;;;;;;;4953243;28;20116;-82
2022/04/06 15:13:10;;;;;;;18.77;2.38;;;;;;;;;;4951488;28;20058;-84
2022/04/06 15:15:38;;;;;;;23.20;2.92;;;;;;;;;;4950787;28;20158;-79
2022/04/06 15:18:07;;;;;;;22.43;2.90;;;;;;;;;;4969783;28;20054;-81
2022/04/06 15:20:35;;;;;;;;;;;;;;;;;;4971103;28;20053;-85
2022/04/06 15:23:05;;;;;;;18.48;2.60;;;;;;;;;;4969874;28;19922;-84
2022/04/06 15:25:34;;;;;;;20.92;2.85;;;;;;;;;;4970403;28;20188;-83
2022/04/06 15:28:01;;;;;;;14.48;2.33;;;;;;;;;;4954402;28;20129;-83
2022/04/06 15:30:28;;;;;;;20.05;2.63;;;;;;;;;;4954143;28;20057;-84
2022/04/06 15:32:55;;;;;;;20.20;2.80;;;;;;;;;;4954077;28;20055;-83
2022/04/06 15:38:07;;;;;;;14.57;2.53;;;;;;;;;;4969109;28;20074;-86
2022/04/06 15:40:34;;;;;;;18.15;2.90;;;;;;;;;;4968307;28;20050;-84
2022/04/06 15:43:01;;;;;;;24.08;2.90;;;;;;;;;;4971043;28;20118;-85
2022/04/06 15:45:28;;;;;;;16.55;2.40;;;;;;;;;;4970468;28;20070;-84
2022/04/06 15:48:01;;;;;;;30.67;3.58;;;;;;;;;;4973193;28;20138;-84
2022/04/06 15:50:27;;;;;;;23.73;3.58;;;;;;;;;;4976557;28;20098;-84
2022/04/06 15:52:54;;;;;;;24.13;3.13;;;;;;;;;;4953195;28;20105;-85
2022/04/06 15:55:21;;;;;;;19.90;2.42;;;;;;;;;;4970767;28;20105;-85
2022/04/06 15:57:49;;;;;;;16.60;2.65;;;;;;;;;;4976706;28;20047;-85
2022/04/06 16:00:16;;;;;;;23.40;2.78;;;;;;;;;;4971097;28;20062;-85
2022/04/06 16:02:43;;;;;;;26.92;3.22;;;;;;;;;;4970221;28;20050;-84
2022/04/06 16:05:10;;;;;;;28.92;3.13;;;;;;;;;;4951470;28;20109;-85
2022/04/06 16:07:37;;;;;;;23.63;2.97;;;;;;;;;;4969085;28;20090;-85
2022/04/06 16:10:05;;;;;;;19.65;2.33;;;;;;;;;;4968135;28;20047;-86
2022/04/06 16:12:32;;;;;;;27.02;3.25;;;;;;;;;;4967716;28;20098;-84
2022/04/06 16:14:59;;;;;;;28.92;3.83;;;;;;;;;;4949210;28;20049;-86
2022/04/06 16:17:25;;;;;;;26.70;3.40;;;;;;;;;;4968425;28;20570;-86
2022/04/06 16:19:52;;;;;;;30.90;3.30;;;;;;;;;;4969096;28;20066;-85
2022/04/06 16:22:19;;;;;;;22.35;3.35;;;;;;;;;;4968003;28;20504;-85
2022/04/06 16:24:46;;;;;;;31.33;3.35;;;;;;;;;;4967139;28;20050;-83
2022/04/06 16:27:13;;;;;;;29.88;3.47;;;;;;;;;;4966743;28;20074;-84
2022/04/06 16:29:39;;;;;;;24.67;3.53;;;;;;;;;;4952021;28;20047;-86
2022/04/06 16:32:07;;;;;;;27.63;3.60;;;;;;;;;;4968851;28;20472;-85
2022/04/06 16:34:34;;;;;;;25.60;3.75;;;;;;;;;;4970573;28;20054;-83
2022/04/06 16:37:02;;;;;;;27.52;3.78;;;;;;;;;;4971856;28;20124;-85
2022/04/06 16:39:29;;;;;;;30.75;3.17;;;;;;;;;;4968074;28;20416;-84
2022/04/06 16:41:57;;;;;;;20.23;3.45;;;;;;;;;;4969873;28;20586;-83
2022/04/06 16:44:25;;;;;;;28.10;3.40;;;;;;;;;;4967927;28;20054;-86
2022/04/06 16:46:52;;;;;;;19.35;2.92;;;;;;;;;;4968214;28;20051;-87
2022/04/06 16:49:20;;;;;;;25.48;3.75;;;;;;;;;;4967831;28;20150;-85
2022/04/06 16:54:38;;;;;;;31.55;4.53;;;;;;;;;;4968106;28;20105;-85
2022/04/06 16:57:04;;;;;;;26.90;4.82;;;;;;;;;;4968625;28;20146;-83
2022/04/06 16:59:31;;;;;;;33.35;5.82;;;;;;;;;;4968556;28;20054;-80
2022/04/06 17:01:58;;;;;;;29.58;8.38;;;;;;;;;;4966880;28;20142;-82
2022/04/06 17:04:24;;;;;;;35.92;5.57;;;;;;;;;;4967822;28;20054;-85
2022/04/06 17:06:51;;;;;;;41.63;5.57;;;;;;;;;;4968502;28;20047;-85
2022/04/06 17:09:20;;;;;;;26.50;4.35;;;;;;;;;;4950512;28;20054;-84
2022/04/06 17:11:48;;;;;;;40.72;6.10;;;;;;;;;;4968357;28;20566;-85
2022/04/06 17:14:14;;;;;;;26.27;4.45;;;;;;;;;;4967665;28;20051;-83
2022/04/06 17:16:41;;;;;;;35.83;6.35;;;;;;;;;;4967715;28;20089;-85
2022/04/06 17:19:08;;;;;;;34.20;4.80;;;;;;;;;;4966880;28;20396;-85
2022/04/06 17:21:35;;;;;;;47.83;5.53;;;;;;;;;;4962601;28;21791;-83
2022/04/06 17:24:02;;;;;;;42.40;5.03;;;;;;;;;;4968395;28;20070;-86
2022/04/06 17:26:32;;;;;;;36.65;4.65;;;;;;;;;;4950265;28;20055;-85
2022/04/06 17:28:58;;;;;;;36.10;4.45;;;;;;;;;;4964106;28;20515;-86
2022/04/06 17:31:26;;;;;;;35.78;4.90;;;;;;;;;;4967987;28;20050;-83
2022/04/06 17:34:12;;;;;;;45.50;5.97;;;;;;;;;;4955166;28;20042;-85
2022/04/06 17:36:44;;;;;;;;;;;;;;;;;;4968794;28;20055;-85
2022/04/06 17:39:11;;;;;;;34.47;4.88;;;;;;;;;;4967974;28;19922;-86
2022/04/06 17:41:38;;;;;;;44.35;6.03;;;;;;;;;;4967419;28;20050;-84
2022/04/06 17:44:05;;;;;;;45.30;5.75;;;;;;;;;;4971945;28;20121;-86
2022/04/06 17:46:31;;;;;;;36.35;4.60;;;;;;;;;;4970404;28;20512;-86
2022/04/06 17:49:02;;;;;;;40.03;4.95;;;;;;;;;;4967886;28;20052;-86
2022/04/06 17:51:29;;;;;;;40.45;5.18;;;;;;;;;;4948880;28;20520;-86
2022/04/06 17:53:57;;;;;;;35.83;5.28;;;;;;;;;;4968049;28;20107;-85
2022/04/06 17:56:23;;;;;;;48.08;6.10;;;;;;;;;;4969584;28;20146;-84
2022/04/06 17:58:51;;;;;;;43.78;6.30;;;;;;;;;;4967815;28;20054;-86
2022/04/06 18:01:17;;;;;;;53.33;5.78;;;;;;;;;;4966580;28;20047;-86
2022/04/06 18:03:46;;;;;;;55.30;6.03;;;;;;;;;;4963875;28;20050;-87
2022/04/06 18:06:13;;;;;;;62.78;9.25;;;;;;;;;;4959449;28;20054;-84
2022/04/06 18:08:40;;;;;;;57.90;8.07;;;;;;;;;;4957576;28;20082;-84
2022/04/06 18:13:52;;;;;;;57.05;7.45;;;;;;;;;;4966516;28;20519;-85
2022/04/06 18:16:18;;;;;;;60.45;6.70;;;;;;;;;;4957073;28;20099;-85
2022/04/06 18:18:47;;;;;;;46.90;5.95;;;;;;;;;;4954011;28;20046;-85
2022/04/06 18:21:14;;;;;;;62.70;7.95;;;;;;;;;;4960008;28;20111;-85
2022/04/06 18:23:42;;;;;;;63.80;7.30;;;;;;;;;;4961028;28;20471;-85
2022/04/06 18:26:10;;;;;;;62.13;19.60;;;;;;;;;;4969304;28;20286;-84
2022/04/06 18:28:39;;;;;;;54.65;6.75;;;;;;;;;;4949092;28;20531;-84
2022/04/06 18:31:08;;;;;;;59.30;7.45;;;;;;;;;;4963177;28;20074;-84
2022/04/06 18:33:38;;;;;;;46.85;6.60;;;;;;;;;;4970384;28;20050;-86
2022/04/06 18:36:05;;;;;;;46.72;7.10;;;;;;;;;;4970979;28;20043;-84
2022/04/06 18:38:32;;;;;;;46.65;6.78;;;;;;;;;;4970620;28;20058;-84
2022/04/06 18:40:59;;;;;;;57.85;7.13;;;;;;;;;;4965910;28;20137;-84
2022/04/06 18:43:27;;;;;;;62.92;9.05;;;;;;;;;;4964644;28;20062;-82
2022/04/06 18:45:57;;;;;;;50.67;6.15;;;;;;;;;;4965216;28;20073;-84
2022/04/06 18:48:24;;;;;;;56.97;7.28;;;;;;;;;;4962708;28;20050;-83
2022/04/06 18:50:51;;;;;;;58.63;7.82;;;;;;;;;;4964187;28;20109;-85
2022/04/06 18:53:18;;;;;;;44.33;6.15;;;;;;;;;;4962289;28;20109;-83
2022/04/06 18:55:45;;;;;;;59.67;6.97;;;;;;;;;;4960424;28;20511;-82
2022/04/06 18:58:13;;;;;;;62.22;8.10;;;;;;;;;;4960570;28;20066;-85
2022/04/06 19:00:40;;;;;;;58.67;9.45;;;;;;;;;;4949879;28;20047;-83
2022/04/06 19:03:07;;;;;;;45.08;7.72;;;;;;;;;;4947721;28;20423;-83
2022/04/06 19:05:33;;;;;;;57.78;6.57;;;;;;;;;;4961427;28;20043;-81
2022/04/06 19:08:03;;;;;;;68.15;11.85;;;;;;;;;;4950711;28;20077;-85
2022/04/06 19:10:31;;;;;;;59.75;7.63;;;;;;;;;;4965719;28;20051;-82
2022/04/06 19:13:01;;;;;;;50.95;8.05;;;;;;;;;;4969805;28;20046;-83
2022/04/06 19:15:30;;;;;;;50.10;6.85;;;;;;;;;;4969209;28;20066;-81
2022/04/06 19:17:57;;;;;;;55.75;7.70;;;;;;;;;;4974135;28;20074;-82
2022/04/06 19:20:24;;;;;;;65.05;7.93;;;;;;;;;;4969721;28;20138;-83
2022/04/06 19:22:51;;;;;;;56.67;7.65;;;;;;;;;;4970622;28;20133;-83
2022/04/06 19:25:19;;;;;;;47.20;6.32;;;;;;;;;;4969583;28;20171;-82
2022/04/06 19:27:48;;;;;;;69.32;12.60;;;;;;;;;;4952948;28;20074;-83
2022/04/06 19:30:15;;;;;;;56.88;6.60;;;;;;;;;;4970144;28;20431;-82
2022/04/06 19:32:41;;;;;;;55.10;8.27;;;;;;;;;;4970538;28;20055;-80
2022/04/06 19:35:11;;;;;;;50.47;5.68;;;;;;;;;;4968279;28;20070;-83
2022/04/06 19:37:40;;;;;;;48.55;7.63;;;;;;;;;;4953484;28;20100;-83
2022/04/06 19:40:08;;;;;;;36.33;5.00;;;;;;;;;;4971276;28;20074;-83
2022/04/06 19:42:37;;;;;;;38.97;4.53;;;;;;;;;;4952968;28;20081;-82
2022/04/06 19:45:07;;;;;;;;;;;;;;;;;;4975022;28;20583;-83
2022/04/06 19:47:34;;;;;;;33.13;4.22;;;;;;;;;;4969678;28;19922;-81
2022/04/06 19:50:02;;;;;;;28.23;3.53;;;;;;;;;;4965304;28;20558;-81
2022/04/06 19:52:30;;;;;;;24.05;3.20;;;;;;;;;;4959216;28;20085;-83
2022/04/06 19:54:57;;;;;;;30.00;3.67;;;;;;;;;;4964373;28;20109;-82
2022/04/06 19:57:24;;;;;;;22.40;3.33;;;;;;;;;;4962351;28;20125;-83
2022/04/06 19:59:58;;;;;;;24.23;4.25;;;;;;;;;;4955094;28;20594;-81
2022/04/06 20:02:24;;;;;;;26.08;3.28;;;;;;;;;;4955051;28;20105;-84
2022/04/06 20:04:51;;;;;;;17.10;2.88;;;;;;;;;;4958906;28;20143;-83
2022/04/06 20:07:17;;;;;;;23.60;3.10;;;;;;;;;;4963629;28;20133;-82
2022/04/06 20:09:44;;;;;;;23.77;3.33;;;;;;;;;;4949512;28;20039;-83
2022/04/06 20:12:11;;;;;;;19.60;2.60;;;;;;;;;;4958059;28;20121;-81
2022/04/06 20:14:37;;;;;;;23.45;2.70;;;;;;;;;;4965657;28;20587;-82
2022/04/06 20:17:04;;;;;;;17.30;2.63;;;;;;;;;;4957781;28;20574;-81
2022/04/06 20:19:31;;;;;;;18.00;2.90;;;;;;;;;;4960599;28;20075;-82
2022/04/06 20:21:57;;;;;;;15.88;2.75;;;;;;;;;;4959176;28;20054;-83
2022/04/06 20:24:24;;;;;;;18.20;2.22;;;;;;;;;;4955754;28;20082;-82
2022/04/06 20:26:51;;;;;;;23.88;2.40;;;;;;;;;;4966006;28;20474;-86
2022/04/06 20:29:17;;;;;;;23.50;2.97;;;;;;;;;;4961955;28;20079;-84
2022/04/06 20:31:45;;;;;;;23.88;3.47;;;;;;;;;;4958133;28;20132;-81
2022/04/06 20:34:13;;;;;;;27.85;4.68;;;;;;;;;;4964174;28;20059;-82
2022/04/06 20:36:40;;;;;;;21.92;3.13;;;;;;;;;;4966441;28;20082;-82